createdAt,value
2023-01-09T00:01:52.799Z,21.31
2023-01-09T00:04:22.650Z,21.31
2023-01-09T00:06:54.277Z,21.30
2023-01-09T00:09:22.467Z,21.30
2023-01-09T00:11:50.183Z,21.28
2023-01-09T00:14:18.092Z,21.28
2023-01-09T00:16:45.987Z,21.29
2023-01-09T00:19:13.724Z,21.28
2023-01-09T00:21:41.401Z,21.30
2023-01-09T00:24:09.114Z,21.28
2023-01-09T00:26:36.858Z,21.29
2023-01-09T00:29:04.667Z,21.28
2023-01-09T00:31:32.474Z,21.29
2023-01-09T00:34:00.407Z,21.29
2023-01-09T00:36:28.209Z,21.30
2023-01-09T00:38:56.188Z,21.29
2023-01-09T00:41:23.984Z,21.29
2023-01-09T00:43:52.196Z,21.28
2023-01-09T00:46:20.973Z,21.29
2023-01-09T00:48:48.931Z,21.30
2023-01-09T00:51:16.722Z,21.28
2023-01-09T00:53:44.462Z,21.28
2023-01-09T00:56:12.189Z,21.27
2023-01-09T00:58:39.960Z,21.26
2023-01-09T01:01:07.851Z,21.24
2023-01-09T01:03:35.806Z,21.20
2023-01-09T01:06:21.102Z,21.24
2023-01-09T01:08:48.813Z,21.24
2023-01-09T01:11:17.221Z,21.24
2023-01-09T01:13:45.023Z,21.24
2023-01-09T01:16:12.861Z,21.23
2023-01-09T01:18:40.755Z,21.18
2023-01-09T01:21:08.814Z,21.17
2023-01-09T01:23:36.628Z,21.17
2023-01-09T01:26:04.363Z,21.13
2023-01-09T01:28:32.089Z,21.12
2023-01-09T01:30:59.905Z,21.13
2023-01-09T01:33:27.605Z,21.13
2023-01-09T01:35:55.361Z,21.10
2023-01-09T01:38:23.290Z,21.08
2023-01-09T01:40:51.030Z,21.08
2023-01-09T01:43:18.760Z,21.08
2023-01-09T01:45:46.515Z,21.09
2023-01-09T01:48:14.302Z,21.09
2023-01-09T01:50:42.080Z,21.11
2023-01-09T01:53:09.838Z,21.10
2023-01-09T01:55:37.580Z,21.07
2023-01-09T01:58:05.281Z,21.08
2023-01-09T02:09:56.331Z,21.06
2023-01-09T02:12:24.848Z,21.07
2023-01-09T02:14:52.698Z,21.07
2023-01-09T02:17:20.480Z,21.09
2023-01-09T02:19:48.242Z,21.10
2023-01-09T02:22:15.977Z,21.09
2023-01-09T02:24:43.914Z,21.07
2023-01-09T02:27:11.660Z,21.06
2023-01-09T02:29:39.548Z,21.07
2023-01-09T02:32:07.376Z,21.06
2023-01-09T02:34:35.141Z,21.05
2023-01-09T02:37:03.044Z,21.04
2023-01-09T02:39:31.374Z,21.06
2023-01-09T02:41:59.584Z,21.04
2023-01-09T02:44:28.748Z,21.04
2023-01-09T02:46:56.523Z,21.05
2023-01-09T02:49:24.322Z,21.05
2023-01-09T02:51:52.144Z,21.05
2023-01-09T02:54:19.931Z,21.05
2023-01-09T02:56:47.739Z,21.04
2023-01-09T02:59:15.709Z,21.02
2023-01-09T03:01:44.887Z,20.98
2023-01-09T03:04:12.749Z,20.96
2023-01-09T03:06:40.485Z,20.94
2023-01-09T03:09:08.372Z,20.92
2023-01-09T03:11:36.193Z,20.92
2023-01-09T03:14:03.957Z,20.91
2023-01-09T03:16:31.764Z,20.91
2023-01-09T03:18:59.582Z,20.91
2023-01-09T03:21:27.374Z,20.92
2023-01-09T03:23:55.132Z,20.91
2023-01-09T03:26:23.022Z,20.92
2023-01-09T03:28:50.830Z,20.92
2023-01-09T03:31:18.666Z,20.91
2023-01-09T03:33:46.484Z,20.90
2023-01-09T03:36:14.297Z,20.90
2023-01-09T03:38:42.141Z,20.89
2023-01-09T03:41:09.991Z,20.90
2023-01-09T03:43:37.731Z,20.91
2023-01-09T03:46:05.572Z,20.90
2023-01-09T03:48:33.492Z,20.90
2023-01-09T03:51:01.369Z,20.90
2023-01-09T03:53:29.141Z,20.91
2023-01-09T03:55:57.081Z,20.90
2023-01-09T03:58:24.868Z,20.91
2023-01-09T04:00:52.799Z,20.92
2023-01-09T04:03:20.709Z,20.93
2023-01-09T04:05:48.533Z,20.93
2023-01-09T04:08:16.348Z,20.93
2023-01-09T04:10:44.215Z,20.93
2023-01-09T04:13:12.075Z,20.94
2023-01-09T04:15:40.159Z,20.93
2023-01-09T04:18:07.973Z,20.92
2023-01-09T04:20:35.777Z,20.93
2023-01-09T04:23:03.531Z,20.93
2023-01-09T04:25:31.415Z,20.92
2023-01-09T04:27:59.301Z,20.92
2023-01-09T04:30:27.136Z,20.91
2023-01-09T04:32:54.895Z,20.91
2023-01-09T04:35:24.251Z,20.90
2023-01-09T04:37:52.087Z,20.90
2023-01-09T04:40:19.932Z,20.90
2023-01-09T04:42:47.809Z,20.89
2023-01-09T04:45:17.263Z,20.90
2023-01-09T04:47:45.720Z,20.87
2023-01-09T04:50:13.580Z,20.85
2023-01-09T04:52:41.358Z,20.85
2023-01-09T04:55:09.133Z,20.85
2023-01-09T04:57:36.870Z,20.82
2023-01-09T05:02:57.066Z,20.82
2023-01-09T05:05:24.862Z,20.81
2023-01-09T05:07:52.678Z,20.79
2023-01-09T05:10:20.466Z,20.79
2023-01-09T05:12:48.234Z,20.80
2023-01-09T05:15:15.989Z,20.79
2023-01-09T05:17:43.986Z,20.79
2023-01-09T05:20:11.807Z,20.76
2023-01-09T05:22:39.598Z,20.74
2023-01-09T05:25:07.405Z,20.72
2023-01-09T05:27:35.210Z,20.72
2023-01-09T05:30:02.995Z,20.71
2023-01-09T05:32:30.756Z,20.69
2023-01-09T05:34:58.628Z,20.69
2023-01-09T05:37:26.387Z,20.70
2023-01-09T05:39:54.207Z,20.71
2023-01-09T05:42:22.181Z,20.69
2023-01-09T05:44:50.007Z,20.70
2023-01-09T05:47:17.773Z,20.70
2023-01-09T05:49:45.524Z,20.72
2023-01-09T05:52:13.276Z,20.73
2023-01-09T05:54:41.076Z,20.72
2023-01-09T05:57:08.843Z,20.72
2023-01-09T05:59:36.669Z,20.72
2023-01-09T06:02:04.540Z,20.73
2023-01-09T06:04:32.763Z,20.73
2023-01-09T06:07:00.542Z,20.72
2023-01-09T06:09:28.340Z,20.73
2023-01-09T06:11:56.099Z,20.73
2023-01-09T06:14:23.925Z,20.73
2023-01-09T06:16:51.724Z,20.71
2023-01-09T06:19:19.548Z,20.72
2023-01-09T06:21:47.306Z,20.73
2023-01-09T06:24:15.078Z,20.71
2023-01-09T06:26:42.845Z,20.72
2023-01-09T06:29:10.641Z,20.71
2023-01-09T06:31:38.452Z,20.74
2023-01-09T06:34:06.259Z,20.71
2023-01-09T06:36:33.992Z,20.71
2023-01-09T06:39:01.782Z,20.72
2023-01-09T06:41:29.586Z,20.71
2023-01-09T06:43:57.353Z,20.74
2023-01-09T06:46:25.155Z,20.75
2023-01-09T06:48:52.930Z,20.76
2023-01-09T06:51:20.671Z,20.73
2023-01-09T06:53:48.390Z,20.76
2023-01-09T06:56:16.102Z,20.75
2023-01-09T06:58:43.841Z,20.76
2023-01-09T07:01:11.840Z,20.76
2023-01-09T07:03:39.609Z,20.76
2023-01-09T07:06:07.294Z,20.76
2023-01-09T07:08:35.421Z,20.76
2023-01-09T07:11:03.164Z,20.76
2023-01-09T07:13:30.932Z,20.75
2023-01-09T07:15:58.694Z,20.75
2023-01-09T07:18:26.477Z,20.72
2023-01-09T07:20:54.171Z,20.71
2023-01-09T07:23:21.898Z,20.68
2023-01-09T07:25:49.731Z,20.68
2023-01-09T07:28:17.474Z,20.67
2023-01-09T07:30:45.214Z,20.69
2023-01-09T07:33:12.929Z,20.68
2023-01-09T07:35:40.696Z,20.67
2023-01-09T07:38:08.489Z,20.67
2023-01-09T07:40:36.238Z,20.68
2023-01-09T07:43:03.983Z,20.67
2023-01-09T07:45:31.791Z,20.66
2023-01-09T07:47:59.489Z,20.68
2023-01-09T07:50:27.241Z,20.67
2023-01-09T07:52:54.968Z,20.66
2023-01-09T07:55:22.728Z,20.66
2023-01-09T07:57:50.958Z,20.66
2023-01-09T08:00:18.702Z,20.66
2023-01-09T08:02:46.457Z,20.67
2023-01-09T08:05:15.966Z,20.67
2023-01-09T08:07:43.740Z,20.66
2023-01-09T08:10:11.610Z,20.66
2023-01-09T08:12:43.096Z,20.65
2023-01-09T08:15:10.830Z,20.65
2023-01-09T08:17:38.632Z,20.66
2023-01-09T08:20:06.328Z,20.66
2023-01-09T08:22:34.110Z,20.67
2023-01-09T08:25:01.820Z,20.67
2023-01-09T08:27:29.548Z,20.67
2023-01-09T08:29:57.286Z,20.67
2023-01-09T08:32:25.265Z,20.68
2023-01-09T08:34:53.088Z,20.69
2023-01-09T08:37:20.918Z,20.69
2023-01-09T08:39:48.779Z,20.69
2023-01-09T08:42:34.420Z,20.69
2023-01-09T08:45:19.612Z,20.66
2023-01-09T08:47:47.313Z,20.66
2023-01-09T08:50:15.106Z,20.64
2023-01-09T08:52:42.866Z,20.64
2023-01-09T08:55:10.611Z,20.65
2023-01-09T08:57:38.315Z,20.68
2023-01-09T09:00:06.386Z,20.69
2023-01-09T09:02:34.123Z,20.73
2023-01-09T09:05:02.064Z,20.73
2023-01-09T09:07:29.862Z,20.73
2023-01-09T09:09:57.589Z,20.71
2023-01-09T09:12:25.353Z,20.70
2023-01-09T09:15:10.553Z,20.69
2023-01-09T09:17:38.372Z,20.66
2023-01-09T09:20:06.110Z,20.67
2023-01-09T09:22:33.874Z,20.68
2023-01-09T09:25:02.552Z,20.70
2023-01-09T09:27:30.269Z,20.70
2023-01-09T09:29:57.974Z,20.68
2023-01-09T09:32:25.734Z,20.68
2023-01-09T09:34:53.519Z,20.69
2023-01-09T09:37:21.244Z,20.69
2023-01-09T09:39:48.992Z,20.68
2023-01-09T09:42:34.078Z,20.67
2023-01-09T09:45:01.859Z,20.64
2023-01-09T09:47:29.629Z,20.64
2023-01-09T09:49:57.370Z,20.64
2023-01-09T09:52:25.347Z,20.63
2023-01-09T09:54:53.033Z,20.63
2023-01-09T09:57:20.783Z,20.64
2023-01-09T09:59:51.279Z,20.65
2023-01-09T10:02:19.066Z,20.66
2023-01-09T10:04:46.913Z,20.66
2023-01-09T10:07:14.680Z,20.65
2023-01-09T10:09:42.439Z,20.64
2023-01-09T10:12:10.201Z,20.64
2023-01-09T10:14:37.966Z,20.65
2023-01-09T10:17:05.718Z,20.65
2023-01-09T10:19:33.452Z,20.66
2023-01-09T10:22:01.302Z,20.65
2023-01-09T10:24:29.028Z,20.65
2023-01-09T10:26:57.215Z,20.65
2023-01-09T10:29:25.004Z,20.66
2023-01-09T10:31:52.731Z,20.65
2023-01-09T10:34:20.502Z,20.66
2023-01-09T10:36:48.510Z,20.66
2023-01-09T10:39:16.250Z,20.66
2023-01-09T10:41:43.954Z,20.65
2023-01-09T10:44:11.746Z,20.64
2023-01-09T10:46:40.254Z,20.64
2023-01-09T10:49:08.065Z,20.63
2023-01-09T10:51:35.795Z,20.62
2023-01-09T10:54:03.659Z,20.61
2023-01-09T10:56:31.399Z,20.61
2023-01-09T10:58:59.396Z,20.60
2023-01-09T11:01:27.114Z,20.61
2023-01-09T11:03:54.908Z,20.60
2023-01-09T11:06:22.659Z,20.59
2023-01-09T11:08:50.781Z,20.59
2023-01-09T11:11:18.535Z,20.58
2023-01-09T11:13:48.582Z,20.57
2023-01-09T11:16:16.309Z,20.56
2023-01-09T11:18:44.033Z,20.57
2023-01-09T11:21:11.759Z,20.56
2023-01-09T11:23:39.475Z,20.57
2023-01-09T11:26:07.904Z,20.58
2023-01-09T11:28:36.522Z,20.57
2023-01-09T11:31:04.371Z,20.59
2023-01-09T11:33:32.109Z,20.58
2023-01-09T11:35:59.834Z,20.57
2023-01-09T11:38:27.601Z,20.59
2023-01-09T11:40:55.377Z,20.57
2023-01-09T11:43:23.164Z,20.58
2023-01-09T11:46:00.541Z,20.58
2023-01-09T11:48:29.737Z,20.58
2023-01-09T11:50:57.545Z,20.58
2023-01-09T11:53:25.410Z,20.60
2023-01-09T11:55:53.254Z,20.60
2023-01-09T11:58:21.121Z,20.61
2023-01-09T12:00:48.887Z,20.61
2023-01-09T12:03:16.710Z,20.60
2023-01-09T12:05:44.463Z,20.62
2023-01-09T12:08:12.202Z,20.62
2023-01-09T12:10:39.966Z,20.62
2023-01-09T12:13:07.695Z,20.63
2023-01-09T12:15:35.422Z,20.63
2023-01-09T12:18:03.187Z,20.64
2023-01-09T12:20:30.935Z,20.64
2023-01-09T12:22:58.685Z,20.65
2023-01-09T12:25:29.112Z,20.65
2023-01-09T12:27:56.850Z,20.65
2023-01-09T12:30:26.249Z,20.64
2023-01-09T12:32:54.033Z,20.66
2023-01-09T12:35:21.733Z,20.65
2023-01-09T12:37:49.475Z,20.65
2023-01-09T12:40:17.214Z,20.66
2023-01-09T12:42:45.117Z,20.65
2023-01-09T12:45:12.876Z,20.65
2023-01-09T12:47:40.633Z,20.65
2023-01-09T12:52:37.331Z,20.62
2023-01-09T12:55:05.260Z,20.59
2023-01-09T12:57:33.075Z,20.58
2023-01-09T13:00:00.847Z,20.57
2023-01-09T13:02:28.704Z,20.58
2023-01-09T13:04:56.537Z,20.58
2023-01-09T13:07:24.341Z,20.57
2023-01-09T13:09:52.117Z,20.57
2023-01-09T13:12:21.895Z,20.58
2023-01-09T13:14:49.732Z,20.58
2023-01-09T13:17:17.472Z,20.58
2023-01-09T13:19:46.257Z,20.57
2023-01-09T13:22:14.667Z,20.56
2023-01-09T13:24:43.165Z,20.57
2023-01-09T13:27:10.965Z,20.59
2023-01-09T13:29:38.830Z,20.58
2023-01-09T13:32:07.723Z,20.58
2023-01-09T13:34:36.053Z,20.60
2023-01-09T13:37:03.874Z,20.59
2023-01-09T13:39:32.313Z,20.60
2023-01-09T13:42:17.733Z,20.59
2023-01-09T13:44:45.534Z,20.59
2023-01-09T13:47:13.371Z,20.60
2023-01-09T13:49:41.157Z,20.58
2023-01-09T13:52:08.957Z,20.58
2023-01-09T13:54:36.756Z,20.59
2023-01-09T13:57:04.565Z,20.60
2023-01-09T13:59:32.320Z,20.60
2023-01-09T14:02:00.113Z,20.58
2023-01-09T14:04:28.014Z,20.60
2023-01-09T14:06:55.866Z,20.60
2023-01-09T14:09:23.696Z,20.61
2023-01-09T14:11:51.498Z,20.62
2023-01-09T14:14:19.282Z,20.61
2023-01-09T14:16:47.142Z,20.64
2023-01-09T14:19:14.938Z,20.64
2023-01-09T14:21:42.733Z,20.65
2023-01-09T14:24:10.569Z,20.63
2023-01-09T14:26:38.387Z,20.64
2023-01-09T14:29:06.240Z,20.64
2023-01-09T14:31:34.308Z,20.66
2023-01-09T14:34:23.588Z,20.66
2023-01-09T14:36:49.968Z,20.63
2023-01-09T14:39:17.787Z,20.62
2023-01-09T14:42:05.847Z,20.59
2023-01-09T14:44:33.741Z,20.60
2023-01-09T14:47:01.574Z,24.42
2023-01-09T14:49:29.341Z,29.97
2023-01-09T14:51:57.113Z,33.94
2023-01-09T14:54:24.840Z,36.33
2023-01-09T14:56:52.598Z,37.86
2023-01-09T14:59:20.344Z,38.86
2023-01-09T15:01:49.417Z,39.63
2023-01-09T15:04:17.256Z,40.19
2023-01-09T15:06:45.075Z,40.56
2023-01-09T15:09:12.879Z,40.71
2023-01-09T15:11:40.653Z,40.64
2023-01-09T15:14:10.315Z,40.16
2023-01-09T15:16:38.147Z,39.38
2023-01-09T15:19:06.813Z,38.47
2023-01-09T15:21:34.604Z,37.57
2023-01-09T15:24:02.536Z,36.60
2023-01-09T15:26:30.407Z,35.67
2023-01-09T15:28:58.226Z,34.77
2023-01-09T15:31:26.023Z,33.93
2023-01-09T15:33:54.156Z,33.12
2023-01-09T15:36:22.088Z,32.36
2023-01-09T15:38:49.911Z,31.68
2023-01-09T15:41:39.744Z,31.03
2023-01-09T15:44:07.496Z,30.33
2023-01-09T15:46:35.327Z,29.73
2023-01-09T15:49:03.108Z,29.15
2023-01-09T15:51:30.895Z,28.65
2023-01-09T15:54:00.827Z,28.17
2023-01-09T15:56:30.660Z,27.70
2023-01-09T15:58:58.519Z,27.33
2023-01-09T16:01:26.415Z,26.95
2023-01-09T16:03:54.343Z,26.56
2023-01-09T16:06:22.205Z,26.24
2023-01-09T16:08:52.330Z,26.00
2023-01-09T16:11:20.176Z,25.70
2023-01-09T16:13:48.017Z,25.43
2023-01-09T16:16:15.882Z,25.20
2023-01-09T16:18:43.734Z,25.00
2023-01-09T16:21:11.489Z,24.78
2023-01-09T16:23:39.274Z,24.57
2023-01-09T16:26:07.138Z,24.41
2023-01-09T16:28:34.949Z,24.30
2023-01-09T16:31:02.877Z,24.12
2023-01-09T16:33:30.688Z,23.88
2023-01-09T16:35:59.611Z,24.03
2023-01-09T16:38:27.524Z,24.23
2023-01-09T16:41:15.847Z,24.21
2023-01-09T16:43:42.605Z,24.13
2023-01-09T16:46:10.432Z,24.01
2023-01-09T16:48:38.955Z,24.53
2023-01-09T16:51:06.770Z,26.66
2023-01-09T16:53:34.566Z,28.80
2023-01-09T16:56:02.758Z,30.76
2023-01-09T16:58:30.954Z,32.37
2023-01-09T17:00:58.752Z,33.07
2023-01-09T17:03:26.525Z,33.16
2023-01-09T17:05:54.419Z,32.92
2023-01-09T17:08:22.523Z,32.43
2023-01-09T17:10:50.322Z,31.87
2023-01-09T17:13:18.114Z,31.21
2023-01-09T17:15:45.896Z,30.56
2023-01-09T17:18:13.993Z,29.94
2023-01-09T17:20:41.781Z,29.37
2023-01-09T17:23:09.645Z,28.83
2023-01-09T17:25:55.030Z,28.30
2023-01-09T17:28:36.028Z,27.74
2023-01-09T17:31:06.380Z,27.27
2023-01-09T17:33:34.203Z,26.86
2023-01-09T17:36:02.012Z,26.47
2023-01-09T17:38:35.478Z,26.12
2023-01-09T17:41:03.280Z,25.78
2023-01-09T17:43:32.215Z,25.48
2023-01-09T17:46:00.266Z,25.19
2023-01-09T17:48:28.134Z,24.95
2023-01-09T17:50:55.952Z,24.72
2023-01-09T17:53:25.350Z,24.51
2023-01-09T17:55:53.122Z,24.34
2023-01-09T17:58:20.944Z,24.18
2023-01-09T18:00:48.752Z,24.01
2023-01-09T18:03:16.494Z,23.91
2023-01-09T18:05:44.362Z,23.76
2023-01-09T18:08:12.665Z,23.64
2023-01-09T18:10:40.548Z,23.51
2023-01-09T18:13:08.899Z,23.60
2023-01-09T18:15:37.241Z,23.75
2023-01-09T18:18:05.023Z,23.71
2023-01-09T18:20:32.885Z,23.69
2023-01-09T18:23:00.641Z,23.61
2023-01-09T18:25:28.418Z,23.53
2023-01-09T18:27:56.372Z,23.49
2023-01-09T18:30:24.139Z,23.42
2023-01-09T18:32:52.006Z,23.35
2023-01-09T18:35:19.803Z,23.28
2023-01-09T18:37:48.269Z,23.20
2023-01-09T18:40:16.055Z,23.13
2023-01-09T18:42:45.574Z,23.08
2023-01-09T18:45:13.351Z,23.03
2023-01-09T18:47:41.148Z,22.94
2023-01-09T18:50:09.313Z,22.90
2023-01-09T18:52:37.055Z,23.90
2023-01-09T18:55:04.838Z,26.37
2023-01-09T18:57:32.647Z,29.42
2023-01-09T19:00:00.398Z,32.61
2023-01-09T19:02:28.134Z,34.76
2023-01-09T19:04:55.881Z,36.01
2023-01-09T19:07:28.858Z,36.66
2023-01-09T19:09:56.722Z,36.70
2023-01-09T19:12:24.401Z,36.39
2023-01-09T19:14:53.049Z,35.82
2023-01-09T19:17:20.814Z,35.08
2023-01-09T19:19:49.347Z,34.41
2023-01-09T19:22:17.062Z,33.66
2023-01-09T19:24:44.751Z,32.96
2023-01-09T19:27:12.464Z,32.25
2023-01-09T19:29:40.228Z,31.60
2023-01-09T19:32:08.643Z,30.95
2023-01-09T19:34:36.595Z,30.28
2023-01-09T19:37:04.590Z,29.75
2023-01-09T19:39:32.602Z,29.24
2023-01-09T19:42:00.345Z,28.71
2023-01-09T19:44:28.137Z,28.24
2023-01-09T19:46:55.963Z,27.82
2023-01-09T19:49:24.500Z,27.40
2023-01-09T19:51:55.130Z,27.01
2023-01-09T19:54:22.847Z,26.64
2023-01-09T19:56:50.840Z,26.31
2023-01-09T19:59:22.346Z,26.03
2023-01-09T20:01:50.080Z,25.75
2023-01-09T20:04:18.709Z,25.51
2023-01-09T20:06:46.541Z,25.29
2023-01-09T20:09:14.285Z,25.03
2023-01-09T20:11:42.162Z,24.85
2023-01-09T20:14:09.925Z,24.65
2023-01-09T20:16:37.706Z,24.48
2023-01-09T20:19:07.607Z,24.31
2023-01-09T20:21:35.412Z,24.15
2023-01-09T20:24:05.251Z,24.02
2023-01-09T20:26:33.064Z,24.15
2023-01-09T20:29:00.855Z,24.31
2023-01-09T20:31:28.831Z,24.34
2023-01-09T20:33:56.553Z,24.26
2023-01-09T20:36:27.594Z,24.13
2023-01-09T20:38:55.446Z,24.05
2023-01-09T20:41:26.229Z,23.96
2023-01-09T20:43:55.601Z,23.84
2023-01-09T20:46:23.656Z,23.73
2023-01-09T20:48:51.448Z,23.63
2023-01-09T20:51:19.295Z,23.54
2023-01-09T20:53:47.122Z,23.42
2023-01-09T20:56:14.839Z,23.34
2023-01-09T20:58:42.881Z,23.24
2023-01-09T21:01:10.698Z,23.17
2023-01-09T21:03:38.496Z,23.08
2023-01-09T21:06:06.694Z,23.00
2023-01-09T21:08:34.717Z,22.91
2023-01-09T21:11:02.445Z,22.82
2023-01-09T21:13:30.245Z,22.73
2023-01-09T21:15:58.018Z,22.67
2023-01-09T21:18:25.821Z,22.62
2023-01-09T21:20:53.517Z,22.54
2023-01-09T21:23:22.141Z,22.48
2023-01-09T21:25:49.854Z,22.44
2023-01-09T21:28:18.685Z,22.39
2023-01-09T21:30:49.574Z,22.36
2023-01-09T21:33:19.798Z,22.31
2023-01-09T21:35:47.505Z,22.27
2023-01-09T21:38:15.257Z,22.23
2023-01-09T21:40:43.710Z,22.21
2023-01-09T21:43:29.066Z,22.20
2023-01-09T21:46:14.523Z,22.15
2023-01-09T21:48:42.272Z,22.11
2023-01-09T21:51:10.022Z,22.10
2023-01-09T21:53:37.765Z,22.06
2023-01-09T21:56:05.467Z,22.04
2023-01-09T21:58:33.266Z,22.03
2023-01-09T22:01:03.410Z,22.00
2023-01-09T22:03:31.230Z,21.97
2023-01-09T22:05:59.050Z,21.94
2023-01-09T22:08:26.809Z,21.92
2023-01-09T22:10:54.650Z,21.92
2023-01-09T22:13:22.386Z,21.90
2023-01-09T22:15:50.140Z,21.89
2023-01-09T22:18:17.845Z,21.86
2023-01-09T22:20:45.618Z,21.82
2023-01-09T22:25:42.010Z,21.78
2023-01-09T22:28:10.235Z,21.76
2023-01-09T22:30:38.265Z,21.75
2023-01-09T22:33:07.453Z,21.74
2023-01-09T22:35:35.261Z,21.72
2023-01-09T22:38:03.029Z,21.70
2023-01-09T22:40:30.925Z,21.69
2023-01-09T22:42:58.710Z,21.67
2023-01-09T22:45:26.448Z,21.67
2023-01-09T22:47:54.283Z,21.65
2023-01-09T22:50:22.051Z,21.65
2023-01-09T22:52:50.045Z,21.62
2023-01-09T22:55:17.834Z,21.60
2023-01-09T22:57:45.750Z,21.61
2023-01-09T23:00:13.534Z,21.59
2023-01-09T23:02:41.468Z,21.58
2023-01-09T23:05:09.368Z,21.58
2023-01-09T23:07:37.451Z,21.56
2023-01-09T23:10:05.737Z,21.53
2023-01-09T23:12:33.507Z,21.51
2023-01-09T23:15:01.559Z,21.48
2023-01-09T23:17:29.323Z,21.46
2023-01-09T23:19:57.107Z,21.45
2023-01-09T23:22:25.947Z,21.43
2023-01-09T23:24:53.766Z,21.43
2023-01-09T23:27:21.631Z,21.41
2023-01-09T23:29:49.431Z,21.39
2023-01-09T23:32:17.234Z,21.38
2023-01-09T23:34:46.972Z,21.38
2023-01-09T23:37:14.804Z,21.37
2023-01-09T23:39:42.597Z,21.35
2023-01-09T23:42:28.089Z,21.35
2023-01-09T23:44:56.131Z,21.33
2023-01-09T23:47:23.968Z,21.32
2023-01-09T23:49:51.674Z,21.32
2023-01-09T23:52:19.446Z,21.32
2023-01-09T23:54:47.157Z,21.31
2023-01-09T23:57:14.861Z,21.30
2023-01-09T23:59:42.612Z,21.30
